Baiao, Brazil
Current Conditions -  °F | °C
As of 10:00 AM on Tuesday 21 Oct 2014 (Local Time) from SBBE Reporting Station
Broken Clouds Broken Clouds  
Wind Chill: 86°   Ceiling: 2700
Heat Index: 93°   Visibility: 6mi
Dew Point: 73°   Wind: 9mph
Humidity: 66%   Direction: 90°E
Pressure: 29.91"   Gusts: NA
Location:  2.79°S, 49.67°W
Report Text: SBBE 211300Z 09008KT 9999 BKN027 30/23 Q1013
Loading
Personal Weather Stations






























Interactive Weather Map
Tropical Storm Tracking
New forecast layout! Learn more

10-Day Weather Forecast

Advertisements
Track Severe Weather on mobile